Bebington, United Kingdom
Current Conditions -  °F | °C
As of 10:50 PM on Monday 22 Dec 2014 (Local Time) from EGGP Reporting Station
Broken Clouds Broken Clouds  
Wind Chill: 12°   Ceiling: 3200
Heat Index: 12°   Visibility: 6mi
Dew Point:   Wind: 22mph
Humidity: 82%   Direction: 230°SW
Pressure: 29.85"   Gusts: NA
Location:  53.35°N, 3°W
Report Text: EGGP 222250Z 23019KT 9999 FEW021 BKN032 12/09 Q1011
Loading
Personal Weather Stations






























Interactive Weather Map New forecast layout! Learn more

10-Day Weather Forecast

Advertisements
Track Severe Weather on mobile